createdAt,value
2023-03-07T00:00:22.036Z,11.20
2023-03-07T00:02:51.389Z,9.67
2023-03-07T00:05:19.446Z,10.70
2023-03-07T00:07:47.135Z,10.00
2023-03-07T00:10:16.209Z,10.10
2023-03-07T00:12:43.944Z,11.20
2023-03-07T00:15:11.978Z,11.40
2023-03-07T00:17:40.489Z,12.30
2023-03-07T00:20:09.408Z,11.40
2023-03-07T00:22:37.669Z,12.03
2023-03-07T00:25:05.781Z,10.97
2023-03-07T00:27:35.270Z,12.33
2023-03-07T00:30:02.963Z,11.50
2023-03-07T00:32:32.080Z,13.27
2023-03-07T00:35:00.970Z,12.87
2023-03-07T00:37:30.709Z,13.30
2023-03-07T00:39:58.732Z,13.27
2023-03-07T00:45:17.162Z,13.77
2023-03-07T00:47:45.280Z,15.10
2023-03-07T00:50:13.705Z,13.30
2023-03-07T00:52:41.455Z,12.47
2023-03-07T00:55:10.167Z,11.63
2023-03-07T00:57:38.375Z,11.93
2023-03-07T01:00:08.935Z,11.27
2023-03-07T01:02:38.342Z,11.47
2023-03-07T01:05:06.441Z,14.10
2023-03-07T01:07:34.074Z,12.90
2023-03-07T01:10:02.524Z,10.70
2023-03-07T01:12:30.236Z,11.93
2023-03-07T01:14:58.514Z,12.00
2023-03-07T01:17:26.571Z,11.30
2023-03-07T01:19:55.886Z,11.80
2023-03-07T01:22:23.826Z,11.30
2023-03-07T01:24:52.254Z,11.90
2023-03-07T01:27:20.186Z,13.00
2023-03-07T01:29:48.130Z,12.67
2023-03-07T01:32:15.953Z,14.10
2023-03-07T01:34:44.003Z,13.63
2023-03-07T01:37:14.677Z,13.60
2023-03-07T01:39:42.938Z,14.50
2023-03-07T01:42:14.432Z,14.47
2023-03-07T01:44:57.023Z,14.70
2023-03-07T01:47:25.532Z,16.33
2023-03-07T01:49:54.942Z,14.83
2023-03-07T01:52:26.957Z,15.73
2023-03-07T01:55:00.978Z,14.87
2023-03-07T01:57:31.780Z,14.83
2023-03-07T02:00:01.239Z,17.17
2023-03-07T02:02:29.657Z,16.30
2023-03-07T02:05:00.024Z,17.13
2023-03-07T02:07:32.556Z,16.77
2023-03-07T02:10:01.894Z,17.27
2023-03-07T02:12:30.386Z,16.80
2023-03-07T02:14:58.369Z,16.30
2023-03-07T02:17:28.003Z,18.30
2023-03-07T02:20:05.167Z,18.20
2023-03-07T02:22:35.311Z,18.90
2023-03-07T02:25:04.396Z,18.77
2023-03-07T02:27:36.082Z,18.70
2023-03-07T02:30:04.525Z,19.00
2023-03-07T02:32:33.368Z,19.43
2023-03-07T02:35:03.132Z,20.60
2023-03-07T02:37:32.702Z,20.47
2023-03-07T02:40:03.902Z,21.10
2023-03-07T02:42:34.316Z,19.70
2023-03-07T02:45:11.363Z,21.20
2023-03-07T02:47:41.974Z,20.93
2023-03-07T02:50:11.521Z,20.13
2023-03-07T02:52:41.837Z,19.60
2023-03-07T02:55:10.017Z,19.97
2023-03-07T02:57:45.060Z,20.10
2023-03-07T03:00:15.061Z,21.03
2023-03-07T03:02:43.253Z,19.97
2023-03-07T03:05:10.948Z,20.53
2023-03-07T03:07:39.033Z,20.37
2023-03-07T03:10:10.637Z,20.30
2023-03-07T03:12:39.539Z,19.70
2023-03-07T03:15:08.424Z,20.43
2023-03-07T03:17:37.616Z,20.40
2023-03-07T03:20:08.853Z,20.27
2023-03-07T03:22:37.215Z,20.30
2023-03-07T03:25:08.081Z,19.83
2023-03-07T03:27:36.469Z,20.47
2023-03-07T03:30:04.676Z,20.87
2023-03-07T03:32:34.552Z,20.93
2023-03-07T03:37:55.694Z,19.67
2023-03-07T03:40:23.864Z,19.90
2023-03-07T03:42:51.710Z,21.43
2023-03-07T03:45:21.404Z,20.20
2023-03-07T03:47:50.813Z,21.70
2023-03-07T03:50:20.374Z,20.47
2023-03-07T03:52:48.174Z,20.10
2023-03-07T03:55:16.368Z,19.53
2023-03-07T03:57:44.212Z,18.80
2023-03-07T04:00:14.755Z,19.60
2023-03-07T04:02:43.692Z,19.50
2023-03-07T04:05:15.724Z,20.17
2023-03-07T04:07:45.318Z,19.10
2023-03-07T04:10:13.160Z,20.37
2023-03-07T04:12:41.304Z,18.97
2023-03-07T04:15:10.325Z,19.40
2023-03-07T04:17:39.258Z,18.83
2023-03-07T04:20:14.593Z,19.97
2023-03-07T04:22:42.532Z,18.43
2023-03-07T04:25:13.033Z,18.90
2023-03-07T04:27:41.310Z,17.80
2023-03-07T04:30:09.954Z,18.10
2023-03-07T04:32:39.409Z,19.43
2023-03-07T04:35:07.654Z,18.80
2023-03-07T04:37:36.284Z,18.60
2023-03-07T04:40:04.784Z,18.43
2023-03-07T04:42:35.140Z,19.63
2023-03-07T04:45:04.807Z,18.80
2023-03-07T04:47:32.800Z,19.93
2023-03-07T04:50:00.914Z,19.60
2023-03-07T04:52:30.849Z,19.43
2023-03-07T04:54:58.767Z,20.40
2023-03-07T04:57:26.979Z,19.90
2023-03-07T04:59:56.342Z,20.30
2023-03-07T05:02:24.837Z,19.80
2023-03-07T05:04:53.380Z,20.37
2023-03-07T05:07:21.493Z,19.30
2023-03-07T05:09:51.084Z,20.83
2023-03-07T05:12:19.107Z,19.93
2023-03-07T05:14:46.830Z,20.43
2023-03-07T05:17:16.327Z,19.83
2023-03-07T05:19:44.640Z,19.57
2023-03-07T05:22:13.280Z,20.57
2023-03-07T05:24:43.785Z,20.10
2023-03-07T05:27:11.956Z,20.30
2023-03-07T05:29:39.608Z,21.53
2023-03-07T05:32:07.583Z,19.87
2023-03-07T05:34:38.085Z,20.33
2023-03-07T05:37:06.172Z,20.50
2023-03-07T05:39:33.913Z,20.93
2023-03-07T05:42:02.062Z,20.53
2023-03-07T05:44:32.574Z,21.03
2023-03-07T05:47:02.307Z,22.50
2023-03-07T05:49:30.371Z,20.40
2023-03-07T05:51:59.551Z,20.33
2023-03-07T05:54:27.527Z,21.00
2023-03-07T05:56:55.799Z,20.03
2023-03-07T05:59:23.897Z,20.07
2023-03-07T06:01:53.006Z,20.30
2023-03-07T06:04:21.009Z,21.10
2023-03-07T06:06:48.696Z,20.30
2023-03-07T06:09:18.049Z,20.27
2023-03-07T06:11:46.145Z,20.73
2023-03-07T06:14:13.895Z,21.07
2023-03-07T06:16:41.957Z,20.90
2023-03-07T06:19:09.798Z,19.60
2023-03-07T06:21:38.262Z,19.70
2023-03-07T06:24:07.391Z,21.23
2023-03-07T06:26:36.441Z,19.20
2023-03-07T06:29:05.329Z,19.40
2023-03-07T06:31:33.368Z,20.70
2023-03-07T06:34:01.495Z,20.23
2023-03-07T06:36:29.189Z,19.37
2023-03-07T06:39:00.457Z,20.20
2023-03-07T06:41:29.405Z,19.20
2023-03-07T06:44:00.692Z,20.33
2023-03-07T06:46:32.059Z,21.20
2023-03-07T06:49:03.834Z,20.33
2023-03-07T06:51:31.953Z,20.80
2023-03-07T06:53:59.791Z,21.30
2023-03-07T06:56:30.270Z,20.70
2023-03-07T06:59:01.179Z,20.90
2023-03-07T07:01:29.000Z,23.43
2023-03-07T07:03:58.479Z,21.80
2023-03-07T07:06:27.312Z,22.07
2023-03-07T07:08:55.974Z,20.93
2023-03-07T07:11:26.607Z,21.90
2023-03-07T07:13:55.294Z,22.10
2023-03-07T07:16:25.526Z,21.63
2023-03-07T07:18:53.571Z,21.20
2023-03-07T07:21:24.454Z,22.50
2023-03-07T07:23:52.267Z,21.10
2023-03-07T07:26:20.227Z,21.53
2023-03-07T07:28:48.566Z,21.93
2023-03-07T07:31:16.246Z,20.93
2023-03-07T07:33:46.658Z,21.70
2023-03-07T07:36:16.467Z,21.37
2023-03-07T07:38:44.985Z,20.97
2023-03-07T07:41:13.503Z,21.20
2023-03-07T07:43:42.551Z,22.50
2023-03-07T07:46:20.242Z,23.43
2023-03-07T07:48:49.880Z,23.47
2023-03-07T07:51:19.328Z,22.03
2023-03-07T07:53:47.964Z,20.50
2023-03-07T07:56:15.977Z,22.07
2023-03-07T07:58:43.991Z,22.80
2023-03-07T08:01:15.591Z,22.00
2023-03-07T08:03:43.522Z,21.97
2023-03-07T08:06:12.512Z,21.10
2023-03-07T08:08:40.657Z,22.63
2023-03-07T08:11:09.382Z,19.57
2023-03-07T08:13:36.998Z,21.27
2023-03-07T08:16:11.402Z,21.20
2023-03-07T08:18:39.171Z,21.27
2023-03-07T08:21:07.000Z,21.20
2023-03-07T08:23:37.007Z,20.53
2023-03-07T08:26:06.345Z,20.57
2023-03-07T08:28:34.032Z,20.30
2023-03-07T08:31:07.286Z,18.53
2023-03-07T08:33:36.836Z,19.13
2023-03-07T08:36:04.776Z,19.93
2023-03-07T08:38:32.556Z,20.33
2023-03-07T08:41:02.823Z,19.40
2023-03-07T08:43:31.377Z,19.10
2023-03-07T08:45:59.550Z,19.70
2023-03-07T08:48:27.708Z,20.00
2023-03-07T08:50:55.638Z,17.70
2023-03-07T08:53:25.271Z,19.87
2023-03-07T08:55:54.553Z,18.63
2023-03-07T08:58:24.193Z,18.80
2023-03-07T09:00:52.029Z,18.33
2023-03-07T09:03:19.627Z,19.70
2023-03-07T09:05:47.318Z,19.90
2023-03-07T09:08:15.283Z,16.50
2023-03-07T09:10:43.269Z,17.63
2023-03-07T09:13:12.127Z,17.03
2023-03-07T09:15:42.416Z,15.40
2023-03-07T09:18:10.397Z,15.50
2023-03-07T09:20:39.087Z,15.43
2023-03-07T09:23:10.095Z,15.90
2023-03-07T09:25:39.724Z,14.60
2023-03-07T09:28:07.507Z,14.43
2023-03-07T09:30:35.983Z,14.50
2023-03-07T09:33:05.416Z,13.70
2023-03-07T09:35:33.447Z,12.33
2023-03-07T09:38:01.453Z,11.50
2023-03-07T09:40:29.467Z,11.97
2023-03-07T09:43:04.539Z,13.13
2023-03-07T09:45:39.675Z,12.10
2023-03-07T09:48:39.234Z,11.63
2023-03-07T09:51:13.802Z,10.30
2023-03-07T09:53:43.019Z,9.73
2023-03-07T09:56:14.105Z,11.17
2023-03-07T09:58:44.393Z,10.10
2023-03-07T10:01:13.800Z,9.03
2023-03-07T10:03:45.199Z,9.37
2023-03-07T10:06:17.588Z,8.80
2023-03-07T10:08:46.263Z,9.70
2023-03-07T10:11:23.410Z,9.00
2023-03-07T10:14:00.709Z,8.60
2023-03-07T10:16:32.536Z,9.03
2023-03-07T10:19:03.931Z,9.57
2023-03-07T10:21:39.330Z,9.00
2023-03-07T10:24:25.797Z,7.97
2023-03-07T10:26:58.870Z,8.00
2023-03-07T10:29:29.439Z,9.00
2023-03-07T10:32:01.924Z,8.67
2023-03-07T10:34:32.676Z,8.13
2023-03-07T10:37:09.108Z,8.90
2023-03-07T10:39:40.909Z,9.33
2023-03-07T10:42:09.711Z,9.37
2023-03-07T10:44:37.563Z,9.07
2023-03-07T10:47:05.697Z,8.97
2023-03-07T10:49:35.621Z,7.90
2023-03-07T10:52:07.612Z,7.60
2023-03-07T10:54:36.876Z,7.80
2023-03-07T10:57:10.401Z,7.83
2023-03-07T10:59:39.935Z,9.00
2023-03-07T11:02:27.420Z,7.30
2023-03-07T11:04:55.613Z,7.77
2023-03-07T11:07:29.259Z,9.07
2023-03-07T11:09:58.219Z,9.70
2023-03-07T11:12:27.023Z,9.83
2023-03-07T11:14:56.198Z,8.50
2023-03-07T11:17:27.271Z,7.87
2023-03-07T11:19:55.831Z,5.97
2023-03-07T11:22:25.918Z,6.17
2023-03-07T11:25:00.655Z,5.73
2023-03-07T11:27:34.165Z,7.03
2023-03-07T11:30:09.758Z,4.73
2023-03-07T11:32:39.788Z,4.50
2023-03-07T11:35:09.299Z,3.93
2023-03-07T11:38:04.617Z,3.70
2023-03-07T11:40:35.990Z,5.27
2023-03-07T11:43:09.310Z,4.10
2023-03-07T11:45:39.364Z,5.10
2023-03-07T11:48:15.635Z,4.00
2023-03-07T11:50:44.986Z,4.60
2023-03-07T11:53:28.327Z,4.53
2023-03-07T11:56:05.050Z,3.40
2023-03-07T11:58:50.676Z,3.67
2023-03-07T12:01:21.994Z,4.23
2023-03-07T12:03:55.772Z,4.47
2023-03-07T12:06:29.853Z,4.40
2023-03-07T12:09:04.137Z,3.80
2023-03-07T12:11:38.852Z,4.57
2023-03-07T12:14:14.044Z,3.30
2023-03-07T12:16:45.921Z,4.37
2023-03-07T12:19:19.729Z,9.27
2023-03-07T12:22:01.794Z,4.33
2023-03-07T12:24:32.352Z,4.20
2023-03-07T12:27:02.856Z,3.80
2023-03-07T12:29:34.091Z,3.40
2023-03-07T12:32:05.616Z,3.37
2023-03-07T12:34:37.465Z,2.93
2023-03-07T12:37:07.159Z,3.67
2023-03-07T12:39:41.231Z,2.93
2023-03-07T12:42:14.914Z,3.73
2023-03-07T12:44:44.660Z,3.37
2023-03-07T12:47:16.575Z,2.43
2023-03-07T12:49:49.995Z,3.30
2023-03-07T12:52:23.403Z,3.67
2023-03-07T12:54:57.148Z,3.93
2023-03-07T12:57:31.409Z,2.30
2023-03-07T13:00:02.810Z,2.20
2023-03-07T13:02:33.952Z,4.00
2023-03-07T13:05:02.235Z,3.13
2023-03-07T13:07:31.926Z,2.90
2023-03-07T13:10:01.056Z,2.30
2023-03-07T13:12:34.578Z,3.40
2023-03-07T13:15:02.842Z,2.70
2023-03-07T13:17:49.498Z,2.60
2023-03-07T13:20:37.533Z,3.30
2023-03-07T13:23:22.437Z,2.90
2023-03-07T13:25:52.023Z,2.33
2023-03-07T13:28:40.891Z,3.13
2023-03-07T13:31:13.618Z,3.43
2023-03-07T13:33:41.662Z,2.80
2023-03-07T13:36:31.445Z,3.57
2023-03-07T13:38:59.524Z,3.37
2023-03-07T13:41:45.311Z,2.67
2023-03-07T13:44:28.777Z,4.30
2023-03-07T13:47:02.449Z,3.20
2023-03-07T13:49:43.916Z,4.30
2023-03-07T13:52:38.828Z,3.50
2023-03-07T13:55:27.121Z,3.50
2023-03-07T13:57:56.442Z,3.00
2023-03-07T14:00:32.753Z,2.77
2023-03-07T14:03:00.689Z,3.73
2023-03-07T14:05:30.504Z,3.50
2023-03-07T14:07:58.977Z,2.80
2023-03-07T14:10:28.214Z,3.70
2023-03-07T14:13:06.249Z,3.50
2023-03-07T14:15:38.559Z,3.00
2023-03-07T14:18:16.480Z,3.00
2023-03-07T14:20:48.967Z,3.80
2023-03-07T14:23:22.067Z,3.37
2023-03-07T14:25:52.533Z,3.70
2023-03-07T14:28:21.563Z,3.90
2023-03-07T14:30:58.707Z,4.20
2023-03-07T14:33:33.912Z,3.70
2023-03-07T14:36:02.592Z,3.47
2023-03-07T14:38:31.993Z,3.77
2023-03-07T14:41:05.874Z,3.60
2023-03-07T14:43:39.380Z,4.23
2023-03-07T14:46:14.317Z,3.90
2023-03-07T14:48:54.665Z,3.40
2023-03-07T14:51:23.648Z,4.07
2023-03-07T14:53:51.334Z,5.60
2023-03-07T14:56:22.526Z,3.97
2023-03-07T14:58:52.175Z,3.37
2023-03-07T15:01:21.291Z,3.00
2023-03-07T15:03:50.096Z,3.27
2023-03-07T15:06:19.073Z,3.13
2023-03-07T15:08:48.725Z,3.47
2023-03-07T15:11:21.481Z,3.00
2023-03-07T15:13:52.043Z,3.33
2023-03-07T15:16:26.069Z,3.40
2023-03-07T15:18:55.667Z,3.17
2023-03-07T15:21:24.969Z,3.97
2023-03-07T15:23:54.624Z,3.03
2023-03-07T15:26:24.169Z,3.33
2023-03-07T15:28:58.732Z,3.10
2023-03-07T15:31:29.431Z,2.50
2023-03-07T15:34:10.858Z,3.30
2023-03-07T15:36:39.694Z,3.40
2023-03-07T15:39:26.151Z,3.93
2023-03-07T15:42:01.278Z,2.83
2023-03-07T15:44:29.048Z,2.50
2023-03-07T15:46:59.869Z,2.93
2023-03-07T15:49:31.889Z,3.23
2023-03-07T15:52:00.234Z,4.33
2023-03-07T15:54:36.418Z,3.83
2023-03-07T15:57:05.846Z,2.90
2023-03-07T15:59:35.684Z,3.23
2023-03-07T16:02:22.628Z,2.90
2023-03-07T16:04:53.500Z,3.00
2023-03-07T16:07:21.476Z,4.00
2023-03-07T16:09:49.137Z,3.50
2023-03-07T16:12:18.683Z,3.13
2023-03-07T16:14:47.867Z,4.67
2023-03-07T16:17:18.044Z,4.20
2023-03-07T16:19:46.036Z,4.27
2023-03-07T16:22:16.517Z,4.80
2023-03-07T16:24:44.573Z,4.23
2023-03-07T16:27:14.265Z,4.23
2023-03-07T16:29:43.228Z,4.70
2023-03-07T16:32:11.843Z,5.20
2023-03-07T16:34:39.557Z,3.67
2023-03-07T16:37:07.427Z,3.33
2023-03-07T16:39:37.256Z,4.70
2023-03-07T16:42:05.791Z,3.50
2023-03-07T16:44:33.658Z,2.83
2023-03-07T16:47:04.506Z,3.47
2023-03-07T16:49:32.203Z,4.07
2023-03-07T16:52:06.127Z,4.33
2023-03-07T16:54:34.389Z,3.47
2023-03-07T16:57:03.593Z,2.80
2023-03-07T16:59:34.892Z,4.17
2023-03-07T17:02:02.698Z,3.30
2023-03-07T17:04:30.360Z,2.53
2023-03-07T17:07:04.612Z,4.20
2023-03-07T17:09:33.639Z,3.30
2023-03-07T17:12:01.318Z,3.23
2023-03-07T17:14:30.783Z,4.00
2023-03-07T17:17:01.286Z,3.53
2023-03-07T17:19:29.914Z,4.47
2023-03-07T17:22:00.863Z,4.03
2023-03-07T17:24:29.870Z,4.30
2023-03-07T17:26:59.320Z,5.20
2023-03-07T17:29:33.092Z,3.80
2023-03-07T17:32:00.792Z,2.70
2023-03-07T17:34:29.404Z,3.83
2023-03-07T17:36:59.187Z,3.47
2023-03-07T17:39:28.345Z,5.10
2023-03-07T17:41:56.224Z,4.13
2023-03-07T17:44:25.270Z,4.60
2023-03-07T17:46:54.497Z,3.37
2023-03-07T17:49:22.324Z,3.30
2023-03-07T17:51:50.218Z,3.77
2023-03-07T17:54:18.114Z,3.20
2023-03-07T17:56:45.890Z,3.17
2023-03-07T17:59:13.597Z,4.10
2023-03-07T18:01:41.923Z,4.90
2023-03-07T18:04:11.307Z,3.50
2023-03-07T18:06:40.958Z,3.20
2023-03-07T18:09:12.240Z,4.20
2023-03-07T18:11:40.265Z,6.03
2023-03-07T18:14:08.288Z,7.70
2023-03-07T18:16:38.107Z,4.67
2023-03-07T18:19:06.911Z,5.17
2023-03-07T18:21:37.534Z,8.70
2023-03-07T18:24:13.862Z,3.20
2023-03-07T18:26:43.004Z,6.97
2023-03-07T18:29:10.638Z,6.80
2023-03-07T18:31:38.881Z,6.27
2023-03-07T18:34:06.932Z,6.90
2023-03-07T18:36:37.625Z,4.17
2023-03-07T18:39:05.506Z,4.90
2023-03-07T18:41:33.239Z,5.87
2023-03-07T18:44:00.980Z,4.50
2023-03-07T18:46:30.594Z,4.50
2023-03-07T18:48:59.508Z,3.03
2023-03-07T18:51:27.683Z,4.10
2023-03-07T18:53:59.093Z,4.83
2023-03-07T18:56:27.124Z,4.37
2023-03-07T18:58:55.716Z,8.27
2023-03-07T19:01:25.161Z,3.63
2023-03-07T19:03:54.402Z,5.10
2023-03-07T19:06:23.994Z,5.30
2023-03-07T19:08:52.093Z,5.03
2023-03-07T19:11:21.457Z,3.73
2023-03-07T19:13:50.721Z,4.00
2023-03-07T19:16:19.915Z,4.00
2023-03-07T19:18:48.824Z,6.93
2023-03-07T19:21:18.989Z,6.10
2023-03-07T19:23:47.485Z,5.10
2023-03-07T19:26:18.323Z,4.07
2023-03-07T19:28:48.580Z,3.60
2023-03-07T19:31:17.551Z,4.63
2023-03-07T19:33:47.941Z,4.47
2023-03-07T19:36:16.640Z,4.37
2023-03-07T19:38:44.440Z,4.40
2023-03-07T19:41:14.893Z,4.47
2023-03-07T19:43:43.521Z,4.80
2023-03-07T19:46:13.511Z,5.80
2023-03-07T19:48:41.314Z,5.90
2023-03-07T19:51:13.411Z,5.27
2023-03-07T19:53:41.492Z,8.10
2023-03-07T19:56:10.229Z,6.00
2023-03-07T19:58:39.798Z,5.23
2023-03-07T20:01:08.869Z,5.80
2023-03-07T20:03:38.733Z,6.47
2023-03-07T20:06:07.600Z,8.63
2023-03-07T20:08:35.588Z,8.87
2023-03-07T20:11:10.703Z,6.57
2023-03-07T20:13:38.490Z,6.27
2023-03-07T20:16:09.390Z,6.37
2023-03-07T20:18:40.227Z,7.17
2023-03-07T20:21:09.429Z,8.40
2023-03-07T20:23:37.558Z,7.00
2023-03-07T20:26:06.752Z,6.63
2023-03-07T20:28:35.015Z,7.50
2023-03-07T20:31:03.972Z,6.27
2023-03-07T20:33:32.033Z,6.47
2023-03-07T20:36:03.765Z,7.17
2023-03-07T20:38:33.502Z,6.70
2023-03-07T20:41:02.520Z,7.60
2023-03-07T20:43:31.259Z,7.27
2023-03-07T20:46:03.931Z,8.80
2023-03-07T20:48:31.668Z,7.50
2023-03-07T20:51:06.247Z,6.97
2023-03-07T20:53:34.272Z,6.80
2023-03-07T20:56:02.383Z,8.23
2023-03-07T20:58:31.477Z,7.30
2023-03-07T21:00:59.798Z,9.00
2023-03-07T21:03:27.978Z,7.53
2023-03-07T21:05:55.743Z,6.50
2023-03-07T21:08:25.282Z,6.17
2023-03-07T21:11:00.662Z,7.30
2023-03-07T21:13:28.718Z,9.33
2023-03-07T21:15:57.675Z,8.10
2023-03-07T21:18:26.910Z,7.17
2023-03-07T21:20:54.582Z,8.40
2023-03-07T21:23:22.354Z,6.40
2023-03-07T21:25:53.294Z,7.60
2023-03-07T21:28:20.985Z,6.23
2023-03-07T21:30:49.835Z,6.90
2023-03-07T21:33:17.632Z,7.60
2023-03-07T21:35:45.351Z,6.90
2023-03-07T21:38:13.526Z,7.63
2023-03-07T21:40:42.567Z,6.93
2023-03-07T21:43:11.672Z,7.10
2023-03-07T21:45:39.487Z,5.70
2023-03-07T21:48:07.574Z,6.03
2023-03-07T21:50:35.524Z,6.60
2023-03-07T21:53:03.207Z,6.50
2023-03-07T21:55:31.191Z,5.97
2023-03-07T21:57:58.804Z,6.67
2023-03-07T22:00:30.051Z,6.50
2023-03-07T22:02:58.171Z,5.87
2023-03-07T22:05:26.011Z,6.20
2023-03-07T22:07:53.706Z,5.83
2023-03-07T22:10:21.360Z,6.27
2023-03-07T22:12:49.076Z,6.93
2023-03-07T22:15:17.501Z,5.67
2023-03-07T22:17:46.525Z,5.10
2023-03-07T22:20:14.181Z,4.40
2023-03-07T22:22:43.661Z,3.97
2023-03-07T22:25:11.336Z,5.00
2023-03-07T22:27:38.977Z,3.80
2023-03-07T22:30:07.980Z,4.30
2023-03-07T22:32:35.622Z,4.70
2023-03-07T22:35:04.882Z,4.50
2023-03-07T22:37:32.717Z,3.57
2023-03-07T22:40:03.082Z,3.00
2023-03-07T22:42:30.983Z,3.30
2023-03-07T22:44:58.753Z,5.23
2023-03-07T22:47:26.648Z,3.63
2023-03-07T22:49:54.331Z,3.93
2023-03-07T22:52:24.055Z,3.87
2023-03-07T22:54:51.710Z,3.90
2023-03-07T22:57:19.361Z,2.87
2023-03-07T22:59:49.919Z,3.50
2023-03-07T23:02:17.539Z,3.40
2023-03-07T23:04:45.372Z,3.70
2023-03-07T23:07:13.926Z,4.03
2023-03-07T23:09:42.957Z,3.37
2023-03-07T23:12:10.927Z,4.43
2023-03-07T23:14:40.433Z,2.57
2023-03-07T23:17:08.337Z,3.57
2023-03-07T23:19:36.315Z,3.43
2023-03-07T23:22:04.296Z,3.17
2023-03-07T23:24:32.159Z,4.10
2023-03-07T23:27:01.608Z,4.40
2023-03-07T23:29:29.795Z,5.23
2023-03-07T23:31:58.333Z,5.70
2023-03-07T23:34:26.097Z,4.77
2023-03-07T23:36:54.417Z,3.30
2023-03-07T23:39:22.260Z,5.50
2023-03-07T23:41:50.262Z,3.70
2023-03-07T23:44:19.412Z,4.00
2023-03-07T23:46:47.818Z,2.63
2023-03-07T23:49:15.711Z,5.63
2023-03-07T23:51:44.998Z,4.57
2023-03-07T23:54:12.712Z,5.57
2023-03-07T23:56:40.657Z,5.93
2023-03-07T23:59:08.300Z,3.87
